Friday, May 25, 2018, 8:34 PM EDT
Back to Local

KBDL, Bradley International Airport

Location: Windsor Locks, CT, United States Lat: 41.933
Local Time: 8:34 PM EDT ( 0:34 GMT) Lon: -72.683
Time Zone: US/Eastern Elev: 173 ft

Show me the last for .
Show Decoded

2018-05-25 19:51 METAR KBDL 252351Z 20007KT 10SM FEW120 SCT200 BKN230 BKN250 28/11 A2978 RMK AO2
                 SLP083 T02780111 10317 20278 55003 =
2018-05-25 18:51 METAR KBDL 252251Z 25009KT 10SM FEW180 FEW200 SCT250 30/08 A2977 RMK AO2 SLP080
                 T03000083 =
2018-05-25 17:51 METAR KBDL 252151Z 24012KT 10SM FEW250 31/09 A2978 RMK AO2 SLP082 T03110089 =
2018-05-25 16:51 METAR KBDL 252051Z 23014G23KT 10SM FEW210 FEW250 31/09 A2979 RMK AO2 SLP086
                 T03110089 58024 =
2018-05-25 15:51 METAR KBDL 251951Z 24014G20KT 10SM FEW210 BKN250 31/09 A2982 RMK AO2 PK WND
                 25026/1911 SLP095 T03110094 =
2018-05-25 14:51 METAR KBDL 251851Z 26016KT 10SM FEW210 BKN250 31/08 A2983 RMK AO2 SLP101
                 T03110083 =
2018-05-25 13:51 METAR KBDL 251751Z 26015G22KT 10SM FEW210 BKN250 31/08 A2986 RMK AO2 SLP111
                 T03060083 10311 20161 56024 =
2018-05-25 12:51 METAR KBDL 251651Z 27015G23KT 10SM FEW210 BKN250 31/08 A2988 RMK AO2 SLP117
                 T03060083 =
2018-05-25 11:51 METAR KBDL 251551Z 27010KT 10SM FEW230 30/09 A2991 RMK AO2 SLP126 T03000089 =
2018-05-25 10:51 METAR KBDL 251451Z 26006KT 10SM FEW250 28/11 A2993 RMK AO2 SLP135 T02830111
                 58021 =
2018-05-25 09:51 METAR KBDL 251351Z 17003KT 10SM FEW250 24/13 A2997 RMK AO2 SLP146 T02390133 =
2018-05-25 08:51 METAR KBDL 251251Z 18003KT 10SM FEW250 20/12 A2999 RMK AO2 SLP154 T02000117 =
2018-05-25 07:51 METAR KBDL 251151Z 16003KT 10SM FEW250 16/11 A3000 RMK AO2 SLP156 T01560111
                 10156 20111 58005 =
2018-05-25 06:51 METAR KBDL 251051Z 17003KT 10SM FEW250 13/11 A3001 RMK AO2 SLP160 T01330106 =
2018-05-25 05:51 METAR KBDL 250951Z 18005KT 10SM CLR 12/10 A3001 RMK AO2 SLP160 T01170100 =
2018-05-25 04:51 METAR KBDL 250851Z 18004KT 10SM FEW250 11/10 A3001 RMK AO2 SLP162 T01110100
                 56013 =
2018-05-25 03:51 METAR KBDL 250751Z 18005KT 10SM CLR 11/10 A3001 RMK AO2 SLP163 T01110100 =
2018-05-25 02:51 METAR KBDL 250651Z 16007KT 10SM CLR 12/11 A3003 RMK AO2 SLP167 T01170106 =
2018-05-25 01:51 METAR KBDL 250551Z 17005KT 10SM CLR 12/11 A3005 RMK AO2 SLP175 T01220106 10244
                 20122 58010 =
2018-05-25 00:51 METAR KBDL 250451Z 18007KT 10SM CLR 13/11 A3006 RMK AO2 SLP180 T01280111
                 402780111 =
2018-05-24 23:51 METAR KBDL 250351Z 17007KT 10SM CLR 13/11 A3007 RMK AO2 SLP184 T01330111 =
2018-05-24 22:51 METAR KBDL 250251Z 17008KT 10SM CLR 15/12 A3008 RMK AO2 SLP185 T01500117 50012 =
2018-05-24 21:51 METAR KBDL 250151Z 17008KT 10SM CLR 17/12 A3008 RMK AO2 SLP186 T01670122 =
2018-05-24 20:51 METAR KBDL 250051Z 16010KT 10SM CLR 19/12 A3006 RMK AO2 SLP179 T01890122 =

Support USWX by starting your Amazon purchase here.